Time;durP1;ratioP1;P1;durP2;ratioP2;P2;SDS_P1;SDS_P2;PMS_P1;PMS_P2;Temp;Humidity;BMP_temperature;BMP_pressure;BME280_temperature;BME280_humidity;BME280_pressure;Samples;Min_cycle;Max_cycle;Signal;HPM_P1;HPM_P2
2022/04/21 00:31:30;;;;;;;23.45;9.45;;;;;;;9.12;100.00;93862.56;4995755;28;20050;-91
2022/04/21 00:34:03;;;;;;;22.88;10.90;;;;;;;8.81;100.00;93858.25;4974919;28;20419;-91
2022/04/21 00:36:31;;;;;;;23.97;10.63;;;;;;;8.75;100.00;93859.31;4963955;28;20054;-92
2022/04/21 00:39:06;;;;;;;;;;;;;;;;;;;;;
2022/04/21 00:41:37;;;;;;;23.65;11.63;;;;;;;8.98;100.00;93847.47;4998008;28;20022;-91
2022/04/21 00:44:03;;;;;;;27.38;14.55;;;;;;;8.74;100.00;93849.91;4963872;28;20498;-90
2022/04/21 00:46:36;;;;;;;43.47;16.83;;;;;;;8.49;100.00;93857.53;4962206;28;20110;-91
2022/04/21 00:49:12;;;;;;;;;;;;;;;;;;;;;
2022/04/21 00:51:38;;;;;;;25.85;14.00;;;;;;;8.69;100.00;93853.34;4978460;28;20034;-91
2022/04/21 00:54:13;;;;;;;;;;;;;;;;;;;;;
2022/04/21 00:56:42;;;;;;;33.30;13.85;;;;;;;8.54;100.00;93858.63;4977266;28;20033;-92
2022/04/21 00:59:10;;;;;;;23.58;13.25;;;;;;;8.62;100.00;93843.19;4946293;28;20030;-91
2022/04/21 01:04:21;;;;;;;27.00;14.07;;;;;;;8.66;100.00;93835.56;4979324;28;20091;-90
2022/04/21 01:06:52;;;;;;;25.45;14.25;;;;;;;8.56;100.00;93841.63;4961993;28;20023;-92
2022/04/21 01:09:19;;;;;;;33.33;14.57;;;;;;;8.42;100.00;93836.19;4945786;28;20045;-92
2022/04/21 01:11:50;;;;;;;24.17;13.73;;;;;;;8.53;100.00;93850.00;4979265;28;20057;-92
2022/04/21 01:14:19;;;;;;;25.50;13.48;;;;;;;8.86;100.00;93837.31;4962077;28;20027;-92
2022/04/21 01:16:46;;;;;;;24.02;13.00;;;;;;;8.44;100.00;93838.50;4962202;28;20034;-92
2022/04/21 01:19:12;;;;;;;28.33;12.60;;;;;;;8.49;100.00;93846.34;4961931;28;20038;-92
2022/04/21 01:21:43;;;;;;;27.38;13.77;;;;;;;8.31;100.00;93845.84;4961589;28;20340;-91
2022/04/21 01:24:11;;;;;;;24.88;12.65;;;;;;;8.70;100.00;93835.84;4961732;28;20097;-92
2022/04/21 01:26:37;;;;;;;21.65;11.48;;;;;;;8.93;100.00;93828.41;4961944;28;20428;-92
2022/04/21 01:29:14;;;;;;;;;;;;;;;;;;;;;
2022/04/21 01:31:43;;;;;;;23.85;11.48;;;;;;;9.04;100.00;93820.25;4963019;28;20460;-91
2022/04/21 01:34:09;;;;;;;22.25;12.05;;;;;;;9.10;100.00;93825.44;4961959;28;20523;-92
2022/04/21 01:36:36;;;;;;;19.00;10.80;;;;;;;9.08;100.00;93819.69;4961508;28;20129;-91
2022/04/21 01:42:04;;;;;;;20.52;11.07;;;;;;;9.16;100.00;93817.28;4963770;28;20366;-89
2022/04/21 01:44:29;;;;;;;26.55;12.32;;;;;;;8.91;100.00;93816.41;4977873;28;20038;-92
2022/04/21 01:47:02;;;;;;;29.45;12.82;;;;;;;8.55;100.00;93815.81;4977256;28;20033;-92
2022/04/21 01:49:28;;;;;;;19.53;12.70;;;;;;;8.45;100.00;93817.38;4977357;28;20034;-92
2022/04/21 01:51:55;;;;;;;21.45;12.02;;;;;;;8.23;100.00;93820.31;4961339;28;20034;-92
2022/04/21 01:54:21;;;;;;;25.67;14.82;;;;;;;8.27;100.00;93823.94;4961304;28;20038;-90
2022/04/21 01:56:49;;;;;;;28.88;15.02;;;;;;;8.13;100.00;93820.31;4960846;28;20435;-92
2022/04/21 01:59:18;;;;;;;26.60;14.20;;;;;;;8.44;100.00;93823.63;4961335;28;20336;-91
2022/04/21 02:01:47;;;;;;;20.65;12.20;;;;;;;8.64;100.00;93814.19;4978725;28;20034;-92
2022/04/21 02:04:12;;;;;;;22.92;11.93;;;;;;;8.73;100.00;93811.78;4978161;28;20042;-92
2022/04/21 02:06:40;;;;;;;18.88;11.68;;;;;;;8.87;100.00;93822.44;4976761;28;20042;-91
2022/04/21 02:09:07;;;;;;;21.08;11.23;;;;;;;8.93;100.00;93820.59;4961158;28;20098;-91
2022/04/21 02:11:35;;;;;;;25.88;12.43;;;;;;;8.90;100.00;93817.47;4976885;28;20034;-91
2022/04/21 02:14:10;;;;;;;;;;;;;;;;;;;;;
2022/04/21 02:16:46;;;;;;;;;;;;;;;;;;;;;
2022/04/21 02:19:14;;;;;;;21.30;12.20;;;;;;;9.13;100.00;93809.22;4976907;28;20332;-92
2022/04/21 02:21:40;;;;;;;26.48;14.02;;;;;;;8.76;100.00;93811.28;4960898;28;20023;-91
2022/04/21 02:24:13;;;;;;;23.45;14.63;;;;;;;8.75;100.00;93812.28;4977826;28;20336;-92
2022/04/21 02:26:41;;;;;;;22.63;13.07;;;;;;;8.96;100.00;93812.19;4977915;28;20027;-92
2022/04/21 02:29:10;;;;;;;20.92;13.07;;;;;;;8.88;100.00;93805.72;4960968;28;20022;-92
2022/04/21 02:31:46;;;;;;;;;;;;;;;;;;;;;
2022/04/21 02:34:14;;;;;;;31.48;14.82;;;;;;;9.00;100.00;93802.75;4977857;28;20451;-91
2022/04/21 02:36:39;;;;;;;30.20;15.40;;;;;;;8.98;100.00;93799.63;4976569;28;20058;-92
2022/04/21 02:39:06;;;;;;;28.67;15.93;;;;;;;8.89;100.00;93796.81;4960394;28;20061;-91
2022/04/21 02:41:41;;;;;;;34.53;16.73;;;;;;;8.97;100.00;93787.63;4960270;28;20054;-92
2022/04/21 02:44:07;;;;;;;30.02;16.70;;;;;;;8.81;100.00;93785.09;4960594;28;20121;-91
2022/04/21 02:46:34;;;;;;;27.20;16.50;;;;;;;8.93;100.00;93786.63;4960542;28;20030;-91
2022/04/21 02:49:02;;;;;;;28.60;16.25;;;;;;;8.90;100.00;93780.09;4960270;28;20090;-92
2022/04/21 02:51:36;;;;;;;32.25;16.70;;;;;;;8.99;100.00;93775.88;4944640;28;20389;-91
2022/04/21 02:59:38;;;;;;;29.58;17.42;;;;;;;8.77;100.00;93778.88;4976610;28;20530;-91
2022/04/21 03:02:07;;;;;;;29.88;16.65;;;;;;;8.70;100.00;93771.34;4945476;28;20030;-90
2022/04/21 03:04:32;;;;;;;31.75;15.73;;;;;;;8.74;100.00;93772.34;4976667;28;20042;-90
2022/04/21 03:06:57;;;;;;;28.92;16.10;;;;;;;8.72;100.00;93766.63;4975907;28;20474;-90
2022/04/21 03:09:24;;;;;;;28.77;16.75;;;;;;;8.93;100.00;93765.72;4981375;28;20038;-90
2022/04/21 03:11:49;;;;;;;31.67;16.92;;;;;;;8.90;100.00;93757.38;4990914;28;20049;-91
2022/04/21 03:14:25;;;;;;;;;;;;;;;;;;;;;
2022/04/21 03:16:58;;;;;;;247.30;23.90;;;;;;;8.51;100.00;93759.94;4976952;28;20482;-91
2022/04/21 03:19:24;;;;;;;28.40;16.35;;;;;;;8.75;100.00;93754.84;4964818;28;20056;-91
2022/04/21 03:24:33;;;;;;;28.08;17.38;;;;;;;8.58;100.00;93755.97;4999564;28;20034;-90
2022/04/21 03:27:02;;;;;;;27.77;17.25;;;;;;;8.81;100.00;93747.75;4983283;28;20026;-91
2022/04/21 03:29:30;;;;;;;62.40;18.27;;;;;;;8.61;100.00;93746.81;4983120;28;20030;-91
2022/04/21 03:31:58;;;;;;;31.95;18.13;;;;;;;8.46;100.00;93752.88;4983019;28;20067;-91
2022/04/21 03:34:25;;;;;;;153.93;22.90;;;;;;;8.42;100.00;93746.63;4967651;28;20026;-90
2022/04/21 03:36:50;;;;;;;35.97;18.48;;;;;;;8.16;100.00;93757.16;4999139;28;20022;-92
2022/04/21 03:39:20;;;;;;;32.17;18.60;;;;;;;8.48;100.00;93748.19;4983116;28;20494;-91
2022/04/21 03:41:53;;;;;;;28.25;18.33;;;;;;;8.67;100.00;93748.34;4983318;28;20350;-91
2022/04/21 03:44:20;;;;;;;39.85;18.63;;;;;;;8.67;100.00;93740.50;4999055;28;20062;-91
2022/04/21 03:46:46;;;;;;;36.33;18.95;;;;;;;8.70;100.00;93736.59;4982658;28;20113;-91
2022/04/21 03:49:11;;;;;;;29.25;18.23;;;;;;;8.81;100.00;93735.47;4966369;28;20056;-91
2022/04/21 03:51:44;;;;;;;70.20;19.45;;;;;;;8.52;100.00;93738.00;4982535;28;20030;-92
2022/04/21 03:54:09;;;;;;;32.27;19.57;;;;;;;8.66;100.00;93743.41;4967665;28;20526;-91
2022/04/21 03:56:37;;;;;;;30.05;17.92;;;;;;;8.69;100.00;93745.47;4982659;28;20116;-91
2022/04/21 03:59:04;;;;;;;181.13;23.40;;;;;;;8.59;100.00;93741.88;4982889;28;20030;-90
2022/04/21 04:01:30;;;;;;;491.63;32.55;;;;;;;8.35;100.00;93741.69;4982921;28;20033;-91
2022/04/21 04:03:56;;;;;;;489.42;35.13;;;;;;;7.85;100.00;93750.22;4982801;28;20030;-91
2022/04/21 04:11:52;;;;;;;40.40;21.10;;;;;;;7.96;100.00;93750.97;4980241;28;20498;-92
2022/04/21 04:14:32;;;;;;;33.30;19.58;;;;;;;7.85;100.00;93749.44;4963015;28;20044;-91
2022/04/21 04:16:59;;;;;;;31.27;18.00;;;;;;;7.77;100.00;93743.72;4980176;28;20062;-91
2022/04/21 04:19:24;;;;;;;63.42;22.38;;;;;;;7.63;100.00;93740.09;4962874;28;20070;-92
2022/04/21 04:21:52;;;;;;;34.58;20.67;;;;;;;7.95;100.00;93759.06;4962966;28;20031;-91
2022/04/21 04:24:17;;;;;;;57.33;20.73;;;;;;;8.01;100.00;93750.94;4947244;28;20030;-91
2022/04/21 04:26:45;;;;;;;37.25;18.80;;;;;;;8.33;100.00;93744.59;4947029;28;20321;-91
2022/04/21 04:29:25;;;;;;;;;;;;;;;;;;;;;
2022/04/21 04:31:53;;;;;;;76.97;21.40;;;;;;;7.78;100.00;93750.50;4964174;28;20037;-91
2022/04/21 04:34:25;;;;;;;32.90;18.33;;;;;;;7.71;100.00;93749.97;4947239;28;20034;-94
2022/04/21 04:36:50;;;;;;;32.40;18.30;;;;;;;8.02;100.00;93743.91;4962688;28;20042;-92
2022/04/21 04:39:17;;;;;;;31.52;18.40;;;;;;;8.20;100.00;93740.72;4962926;28;20397;-92
2022/04/21 04:44:27;;;;;;;28.67;16.92;;;;;;;8.37;100.00;93744.03;4965128;28;20109;-92
2022/04/21 04:46:52;;;;;;;27.60;15.88;;;;;;;8.49;100.00;93741.91;4947014;28;20026;-91
2022/04/21 04:49:23;;;;;;;30.83;17.92;;;;;;;8.40;100.00;93740.91;4946847;28;20030;-93
2022/04/21 04:51:55;;;;;;;29.67;16.15;;;;;;;8.38;100.00;93741.16;4962454;28;20026;-93
2022/04/21 04:54:30;;;;;;;26.58;16.25;;;;;;;8.46;100.00;93751.03;4962109;28;20054;-91
2022/04/21 04:56:57;;;;;;;39.00;16.17;;;;;;;8.14;100.00;93744.41;4953784;28;20121;-91
2022/04/21 04:59:33;;;;;;;;;;;;;;;;;;;;;
2022/04/21 05:02:09;;;;;;;;;;;;;;;;;;;;;
2022/04/21 05:04:37;;;;;;;28.02;15.98;;;;;;;8.03;100.00;93766.34;4979344;28;20058;-93
2022/04/21 05:07:18;;;;;;;;;;;;;;;;;;;;;
2022/04/21 05:09:46;;;;;;;29.20;14.93;;;;;;;7.88;100.00;93764.53;4979422;28;20035;-92
2022/04/21 05:12:18;;;;;;;29.63;16.27;;;;;;;7.83;100.00;93761.97;4946308;28;20376;-92
2022/04/21 05:14:44;;;;;;;27.45;15.38;;;;;;;8.06;100.00;93750.94;4961845;28;20039;-92
2022/04/21 05:17:12;;;;;;;23.77;14.23;;;;;;;8.35;100.00;93752.13;4946549;28;20059;-92
2022/04/21 05:19:38;;;;;;;23.90;14.40;;;;;;;8.20;100.00;93753.00;4960146;28;20030;-92
2022/04/21 05:22:04;;;;;;;20.15;13.00;;;;;;;7.82;100.00;93749.97;4998271;28;20034;-92
2022/04/21 05:24:31;;;;;;;24.15;12.20;;;;;;;7.77;100.00;93751.53;4980939;28;20026;-91
2022/04/21 05:26:57;;;;;;;26.02;14.38;;;;;;;7.95;100.00;93749.41;4980541;28;20034;-92
2022/04/21 05:32:09;;;;;;;26.83;13.70;;;;;;;7.86;100.00;93753.59;4997380;28;20073;-91
2022/04/21 05:34:35;;;;;;;23.60;13.45;;;;;;;7.77;100.00;93753.34;4980698;28;20044;-91
2022/04/21 05:37:09;;;;;;;26.58;14.00;;;;;;;7.59;100.00;93752.09;4965125;28;20038;-92
2022/04/21 05:39:35;;;;;;;27.73;13.93;;;;;;;7.64;100.00;93750.25;4981059;28;20415;-93
2022/04/21 05:42:08;;;;;;;26.20;15.15;;;;;;;7.47;100.00;93747.94;4980362;28;20065;-93
2022/04/21 05:44:37;;;;;;;25.00;13.73;;;;;;;7.87;100.00;93742.13;4981073;28;20053;-91
2022/04/21 05:47:10;;;;;;;25.80;14.57;;;;;;;7.61;100.00;93737.75;4980955;28;20026;-92
2022/04/21 05:49:36;;;;;;;24.88;13.77;;;;;;;7.88;100.00;93731.44;4980814;28;20065;-91
2022/04/21 05:52:02;;;;;;;23.95;14.05;;;;;;;7.93;100.00;93722.81;4980894;28;20061;-92
2022/04/21 05:54:27;;;;;;;21.35;13.25;;;;;;;7.94;100.00;93724.38;4980551;28;20439;-93
2022/04/21 05:56:54;;;;;;;24.92;13.80;;;;;;;7.89;100.00;93721.75;4980085;28;20360;-91
2022/04/21 05:59:22;;;;;;;26.98;14.25;;;;;;;8.13;100.00;93721.16;4997875;28;20379;-92
2022/04/21 06:01:50;;;;;;;26.23;14.55;;;;;;;8.18;100.00;93710.72;4997681;28;20041;-90
2022/04/21 06:04:26;;;;;;;;;;;;;;;;;;;;;
2022/04/21 06:06:54;;;;;;;25.25;13.25;;;;;;;7.63;100.00;93716.63;4996667;28;20024;-92
2022/04/21 06:09:19;;;;;;;24.80;14.15;;;;;;;7.84;100.00;93724.41;4964185;28;20060;-92
2022/04/21 06:11:47;;;;;;;28.70;16.10;;;;;;;7.95;100.00;93733.75;4996370;28;20030;-92
2022/04/21 06:14:12;;;;;;;45.20;15.90;;;;;;;8.04;100.00;93720.94;4964862;28;20457;-91
2022/04/21 06:16:38;;;;;;;25.70;15.40;;;;;;;8.07;100.00;93715.19;4963867;28;20138;-92
2022/04/21 06:19:03;;;;;;;20.38;13.05;;;;;;;8.30;100.00;93718.25;4964205;28;20041;-92
2022/04/21 06:21:36;;;;;;;24.08;14.55;;;;;;;7.97;100.00;93713.41;4997348;28;20037;-92
2022/04/21 06:24:01;;;;;;;22.33;14.13;;;;;;;8.42;100.00;93710.88;4965093;28;20386;-92
2022/04/21 06:26:27;;;;;;;27.23;14.45;;;;;;;8.39;100.00;93718.44;4980146;28;20356;-92
2022/04/21 06:28:58;;;;;;;24.65;13.38;;;;;;;8.47;100.00;93716.06;4980445;28;20411;-92
2022/04/21 06:31:27;;;;;;;23.42;14.40;;;;;;;8.55;100.00;93717.34;4979936;28;20165;-91
2022/04/21 06:33:52;;;;;;;24.70;14.55;;;;;;;8.73;100.00;93707.31;4980423;28;20041;-91
2022/04/21 06:36:17;;;;;;;23.90;14.45;;;;;;;8.54;100.00;93713.19;4997389;28;20403;-91
2022/04/21 06:38:44;;;;;;;35.60;15.98;;;;;;;8.62;100.00;93715.22;4980050;28;20471;-91
2022/04/21 06:41:12;;;;;;;24.33;14.23;;;;;;;8.58;100.00;93716.81;4997641;28;20026;-92
2022/04/21 06:49:08;;;;;;;23.17;12.50;;;;;;;7.76;100.00;93720.50;4997113;28;20134;-92
2022/04/21 06:51:33;;;;;;;19.33;11.50;;;;;;;7.56;100.00;93721.34;4980000;28;20030;-91
2022/04/21 06:53:59;;;;;;;24.73;13.38;;;;;;;7.33;100.00;93729.44;4979637;28;20030;-91
2022/04/21 06:56:25;;;;;;;24.83;13.02;;;;;;;7.30;100.00;93721.34;5000691;28;20431;-91
2022/04/21 06:58:50;;;;;;;20.90;12.48;;;;;;;7.38;100.00;93722.66;4967387;28;20033;-92
2022/04/21 07:01:16;;;;;;;25.08;12.45;;;;;;;7.28;100.00;93726.06;4999847;28;20027;-91
2022/04/21 07:03:42;;;;;;;23.27;12.20;;;;;;;7.29;100.00;93735.44;4999863;28;20031;-92
2022/04/21 07:06:11;;;;;;;19.88;11.18;;;;;;;7.55;100.00;93735.41;4983459;28;20034;-91
2022/04/21 07:09:01;;;;;;;20.55;11.20;;;;;;;7.74;100.00;93725.22;5000931;28;20030;-91
2022/04/21 07:11:27;;;;;;;28.15;13.82;;;;;;;7.63;100.00;93714.78;5000724;28;20081;-91
2022/04/21 07:13:52;;;;;;;24.65;11.45;;;;;;;7.34;100.00;93704.19;4983583;28;20446;-92
2022/04/21 07:16:19;;;;;;;20.27;11.60;;;;;;;7.21;100.00;93700.25;4999523;28;20387;-92
2022/04/21 07:18:45;;;;;;;22.92;12.57;;;;;;;7.65;100.00;93706.72;5001165;28;20041;-91
2022/04/21 07:21:11;;;;;;;21.85;11.43;;;;;;;7.92;100.00;93711.59;5000779;28;20034;-91
2022/04/21 07:23:39;;;;;;;19.23;10.25;;;;;;;7.73;100.00;93708.00;5000501;28;20031;-93
2022/04/21 07:26:08;;;;;;;19.42;10.75;;;;;;;7.72;100.00;93702.00;4983635;28;20338;-92
2022/04/21 07:28:36;;;;;;;18.88;10.55;;;;;;;8.26;100.00;93701.56;5000450;28;20040;-93
2022/04/21 07:31:02;;;;;;;18.65;10.32;;;;;;;8.41;100.00;93693.66;5000071;28;20050;-92
2022/04/21 07:33:27;;;;;;;17.33;9.02;;;;;;;8.48;100.00;93693.34;4983180;28;20121;-91
2022/04/21 07:35:52;;;;;;;18.00;9.20;;;;;;;8.25;100.00;93703.38;4982968;28;20030;-92
2022/04/21 07:38:22;;;;;;;15.00;8.30;;;;;;;7.90;100.00;93711.06;4966642;28;20355;-92
2022/04/21 07:40:50;;;;;;;15.95;9.05;;;;;;;8.13;100.00;93713.34;5000132;28;20034;-92
2022/04/21 07:43:16;;;;;;;17.75;8.85;;;;;;;8.29;100.00;93709.63;5000451;28;20056;-92
2022/04/21 07:45:47;;;;;;;18.38;9.95;;;;;;;8.59;100.00;93707.91;4982782;28;20365;-92
2022/04/21 07:48:12;;;;;;;17.45;9.25;;;;;;;8.88;100.00;93701.97;4982733;28;20038;-91
2022/04/21 07:50:38;;;;;;;15.18;9.30;;;;;;;9.10;100.00;93708.63;4982853;28;20432;-92
2022/04/21 07:53:18;;;;;;;15.65;8.75;;;;;;;8.73;100.00;93702.09;4982959;28;20030;-92
2022/04/21 07:55:57;;;;;;;15.13;9.10;;;;;;;8.20;100.00;93698.97;4999016;28;20363;-92
2022/04/21 07:58:36;;;;;;;;;;;;;;;;;;;;;
2022/04/21 08:01:01;;;;;;;21.52;10.95;;;;;;;7.91;100.00;93696.22;4998922;28;20027;-92
2022/04/21 08:03:37;;;;;;;20.55;10.70;;;;;;;7.99;100.00;93692.28;4982367;28;20118;-92
2022/04/21 08:06:13;;;;;;;18.55;10.30;;;;;;;8.01;100.00;93692.78;4982169;28;20026;-91
2022/04/21 08:08:40;;;;;;;18.50;10.27;;;;;;;8.15;100.00;93688.56;4982922;28;20122;-91
2022/04/21 08:11:07;;;;;;;61.15;13.32;;;;;;;7.56;100.00;93690.84;4999474;28;20042;-92
2022/04/21 08:13:40;;;;;;;64.20;13.57;;;;;;;7.87;100.00;93701.19;4982132;28;20435;-93
2022/04/21 08:16:05;;;;;;;32.58;11.32;;;;;;;7.90;100.00;93692.81;4983026;28;20068;-91
2022/04/21 08:18:31;;;;;;;24.15;11.27;;;;;;;8.11;100.00;93684.94;4965957;28;20030;-91
2022/04/21 08:20:58;;;;;;;23.38;10.75;;;;;;;7.96;100.00;93683.16;4998640;28;20045;-91
2022/04/21 08:23:29;;;;;;;99.95;13.43;;;;;;;8.06;100.00;93701.38;4999872;28;20037;-91
2022/04/21 08:34:09;;;;;;;71.75;14.77;;;;;;;7.76;100.00;93710.88;4998363;28;20037;-93
2022/04/21 08:36:34;;;;;;;80.75;15.50;;;;;;;7.83;100.00;93710.59;4966193;28;20038;-92
2022/04/21 08:39:01;;;;;;;24.48;12.45;;;;;;;8.26;100.00;93704.16;4999235;28;20030;-92
2022/04/21 08:41:27;;;;;;;58.33;13.27;;;;;;;8.22;100.00;93693.47;4999059;28;20061;-92
2022/04/21 08:43:59;;;;;;;123.40;16.00;;;;;;;8.22;100.00;93690.88;4981893;28;20081;-92
2022/04/21 08:46:25;;;;;;;152.05;14.80;;;;;;;8.12;100.00;93703.97;4981866;28;20336;-92
2022/04/21 08:48:51;;;;;;;114.93;14.85;;;;;;;8.18;100.00;93706.28;4981659;28;20432;-91
2022/04/21 08:51:20;;;;;;;282.10;19.98;;;;;;;7.79;100.00;93714.75;4981628;28;20449;-91
2022/04/21 08:53:48;;;;;;;278.90;23.05;;;;;;;7.94;100.00;93716.56;4965638;28;20040;-93
2022/04/21 08:56:16;;;;;;;44.55;13.35;;;;;;;7.72;100.00;93712.44;4997626;28;20427;-92
2022/04/21 08:58:42;;;;;;;235.38;18.73;;;;;;;7.71;100.00;93725.75;4999064;28;20027;-93
2022/04/21 09:01:08;;;;;;;86.50;14.50;;;;;;;7.63;100.00;93735.66;4998619;28;20432;-92
2022/04/21 09:03:36;;;;;;;239.60;19.52;;;;;;;7.59;100.00;93736.44;4981456;28;20438;-93
2022/04/21 09:06:04;;;;;;;172.05;18.95;;;;;;;7.60;100.00;93732.78;4981892;28;20510;-92
2022/04/21 09:08:37;;;;;;;69.57;13.95;;;;;;;7.72;100.00;93724.69;4982391;28;20412;-92
2022/04/21 09:11:11;;;;;;;147.63;16.15;;;;;;;7.83;100.00;93725.44;4982193;28;20026;-93
2022/04/21 09:13:41;;;;;;;278.08;18.35;;;;;;;7.63;100.00;93724.47;4998761;28;20027;-93
2022/04/21 09:16:12;;;;;;;318.02;21.65;;;;;;;7.48;100.00;93731.25;4964881;28;20069;-92
2022/04/21 09:18:42;;;;;;;285.45;19.85;;;;;;;7.49;100.00;93738.03;4980798;28;20037;-92
2022/04/21 09:21:15;;;;;;;271.23;21.05;;;;;;;7.55;100.00;93744.03;4981124;28;20030;-92
2022/04/21 09:23:47;;;;;;;130.90;15.50;;;;;;;7.50;100.00;93750.03;4965170;28;20030;-91
2022/04/21 09:26:15;;;;;;;301.52;19.83;;;;;;;7.52;100.00;93752.34;4965279;28;20033;-92
2022/04/21 09:28:48;;;;;;;231.18;18.30;;;;;;;7.50;100.00;93754.44;4998253;28;20034;-92
2022/04/21 09:31:15;;;;;;;172.90;15.77;;;;;;;7.54;100.00;93746.88;4965551;28;20043;-92
2022/04/21 09:33:44;;;;;;;79.53;13.60;;;;;;;7.23;100.00;93747.69;4997132;28;20431;-91
2022/04/21 09:36:10;;;;;;;48.92;10.88;;;;;;;7.16;100.00;93744.56;4996968;28;20343;-92
2022/04/21 09:39:09;;;;;;;20.30;10.43;;;;;;;7.36;100.00;93746.38;4998082;28;20030;-92
2022/04/21 09:41:36;;;;;;;22.20;10.05;;;;;;;7.55;100.00;93738.03;4980812;28;20356;-92
2022/04/21 09:46:56;;;;;;;14.60;8.30;;;;;;;7.53;100.00;93742.72;4983231;28;20082;-92
2022/04/21 09:49:39;;;;;;;11.00;6.70;;;;;;;7.30;100.00;93739.59;4965338;28;20030;-92
2022/04/21 09:52:05;;;;;;;12.38;7.32;;;;;;;7.61;100.00;93735.13;4980699;28;20034;-91
2022/04/21 09:54:33;;;;;;;12.55;7.07;;;;;;;7.80;100.00;93744.25;4997020;28;20038;-91
2022/04/21 09:57:06;;;;;;;10.88;6.10;;;;;;;7.94;100.00;93734.81;4964977;28;20101;-92
2022/04/21 09:59:35;;;;;;;13.13;6.88;;;;;;;8.24;100.00;93729.72;4965536;28;20443;-92
2022/04/21 10:02:02;;;;;;;9.50;5.63;;;;;;;7.73;100.00;93713.22;4981301;28;20416;-91
2022/04/21 10:04:29;;;;;;;10.77;6.38;;;;;;;8.42;100.00;93718.69;4980558;28;20031;-92
2022/04/21 10:06:55;;;;;;;10.52;6.03;;;;;;;8.31;100.00;93710.13;4964616;28;20026;-91
2022/04/21 10:09:24;;;;;;;8.18;4.85;;;;;;;8.14;100.00;93709.69;4996627;28;20030;-92
2022/04/21 10:11:53;;;;;;;8.77;5.18;;;;;;;8.14;100.00;93715.69;4980714;28;20112;-92
2022/04/21 10:14:21;;;;;;;9.73;5.32;;;;;;;8.08;100.00;93706.31;4996440;28;20038;-92
2022/04/21 10:16:48;;;;;;;8.45;5.38;;;;;;;8.25;100.00;93711.22;4980218;28;20042;-92
2022/04/21 10:19:16;;;;;;;8.82;4.90;;;;;;;8.16;100.00;93716.22;4996518;28;20060;-92
2022/04/21 10:21:48;;;;;;;9.07;5.18;;;;;;;8.16;100.00;93713.59;4964403;28;20125;-93
2022/04/21 10:24:23;;;;;;;9.52;5.57;;;;;;;7.97;100.00;93710.78;4964505;28;20068;-92
2022/04/21 10:26:57;;;;;;;9.10;5.18;;;;;;;8.23;100.00;93709.91;4980192;28;20037;-91
2022/04/21 10:29:26;;;;;;;22.92;7.20;;;;;;;7.92;100.00;93716.03;4964866;28;20057;-92
2022/04/21 10:32:01;;;;;;;16.20;7.63;;;;;;;7.90;100.00;93710.31;4996100;28;20121;-92
2022/04/21 10:34:36;;;;;;;12.02;7.68;;;;;;;8.13;100.00;93716.75;4979994;28;20058;-94
2022/04/21 10:37:16;;;;;;;20.85;7.10;;;;;;;8.01;100.00;93717.03;4980599;28;20030;-93
2022/04/21 10:40:09;;;;;;;20.13;7.72;;;;;;;7.89;100.00;93714.72;4980123;28;20415;-93
2022/04/21 10:42:55;;;;;;;34.08;8.90;;;;;;;7.68;100.00;93721.84;4992037;28;20053;-93
2022/04/21 10:45:36;;;;;;;26.83;8.25;;;;;;;7.76;100.00;93715.28;4997190;28;20396;-93
2022/04/21 10:48:20;;;;;;;71.35;10.13;;;;;;;7.83;100.00;93721.03;4984581;28;20098;-94
2022/04/21 10:50:45;;;;;;;34.13;9.27;;;;;;;7.89;100.00;93724.38;4979939;28;20030;-94
2022/04/21 10:58:47;;;;;;;16.85;8.55;;;;;;;7.47;100.00;93723.69;4963347;28;20037;-94
2022/04/21 11:01:24;;;;;;;;;;;;;;;;;;;;;
2022/04/21 11:04:11;;;;;;;10.30;6.97;;;;;;;8.10;100.00;93722.47;4976847;28;20022;-93
2022/04/21 11:07:01;;;;;;;8.73;5.22;;;;;;;7.99;100.00;93710.53;4977605;28;20030;-93
2022/04/21 11:09:42;;;;;;;8.55;4.88;;;;;;;7.86;100.00;93709.25;4960716;28;20118;-95
2022/04/21 11:12:17;;;;;;;7.88;5.45;;;;;;;7.77;100.00;93707.22;4977714;28;20037;-94
2022/04/21 11:14:46;;;;;;;5.63;3.80;;;;;;;7.71;100.00;93700.44;4962056;28;20034;-93
2022/04/21 11:17:16;;;;;;;7.75;4.47;;;;;;;8.00;100.00;93704.28;4944769;28;20035;-93
2022/04/21 11:19:53;;;;;;;7.40;4.57;;;;;;;8.15;100.00;93701.59;4960560;28;20040;-93
2022/04/21 11:22:41;;;;;;;4.25;3.28;;;;;;;8.44;100.00;93687.88;4945139;28;20053;-94
2022/04/21 11:25:07;;;;;;;8.00;4.78;;;;;;;8.34;100.00;93685.31;4960655;28;20121;-94
2022/04/21 11:27:40;;;;;;;6.40;4.35;;;;;;;7.96;100.00;93687.56;4978195;28;20031;-93
2022/04/21 11:30:10;;;;;;;6.68;4.55;;;;;;;8.06;100.00;93688.34;4943703;28;20035;-92
2022/04/21 11:32:36;;;;;;;6.40;4.60;;;;;;;7.83;100.00;93683.72;4944631;28;20022;-93
2022/04/21 11:35:21;;;;;;;;;;;;;;;;;;;;;
2022/04/21 11:37:55;;;;;;;8.32;4.60;;;;;;;8.34;100.00;93662.63;4980904;28;20029;-93
2022/04/21 11:40:38;;;;;;;6.15;4.25;;;;;;;8.43;100.00;93667.25;4980144;28;20030;-93
2022/04/21 11:43:15;;;;;;;6.03;4.20;;;;;;;8.05;100.00;93660.69;4999322;28;20075;-92
2022/04/21 11:45:41;;;;;;;6.40;3.95;;;;;;;8.29;100.00;93657.41;4966798;28;20032;-92
2022/04/21 11:48:19;;;;;;;6.18;4.00;;;;;;;8.38;100.00;93662.84;4999436;28;20054;-93
2022/04/21 11:50:47;;;;;;;5.97;4.13;;;;;;;8.45;100.00;93663.34;4983381;28;20045;-94
2022/04/21 11:53:20;;;;;;;5.63;4.00;;;;;;;8.79;100.00;93664.44;4966793;28;20026;-93
2022/04/21 11:55:50;;;;;;;4.97;3.53;;;;;;;8.49;100.00;93664.34;4966842;28;20034;-94
2022/04/21 11:58:36;;;;;;;7.45;4.30;;;;;;;8.51;100.00;93684.22;4966735;28;20320;-94
2022/04/21 12:06:51;;;;;;;9.10;5.53;;;;;;;8.11;100.00;93694.56;4999112;28;20088;-93
2022/04/21 12:09:25;;;;;;;10.48;6.45;;;;;;;8.05;100.00;93678.94;4999883;28;20064;-93
2022/04/21 12:12:01;;;;;;;14.18;6.35;;;;;;;8.15;100.00;93670.28;4983356;28;20034;-94
2022/04/21 12:14:28;;;;;;;16.85;6.97;;;;;;;7.77;100.00;93675.91;4966862;28;20452;-94
2022/04/21 12:17:06;;;;;;;15.23;6.68;;;;;;;7.97;100.00;93679.50;4982368;28;20073;-92
2022/04/21 12:19:43;;;;;;;16.65;6.18;;;;;;;8.05;100.00;93683.38;4982493;28;20039;-93
2022/04/21 12:22:19;;;;;;;9.40;5.43;;;;;;;8.04;100.00;93682.59;4998426;28;20030;-92
2022/04/21 12:24:50;;;;;;;55.15;7.78;;;;;;;7.80;100.00;93682.41;4966659;28;20398;-93
2022/04/21 12:27:22;;;;;;;14.55;5.63;;;;;;;7.66;100.00;93687.44;4966448;28;20026;-93
2022/04/21 12:30:06;;;;;;;22.48;6.20;;;;;;;7.68;100.00;93679.34;5000100;28;20432;-93
2022/04/21 12:32:35;;;;;;;10.00;6.43;;;;;;;7.61;100.00;93695.28;4982492;28;20432;-92
2022/04/21 12:35:16;;;;;;;59.17;8.15;;;;;;;7.77;100.00;93709.03;4966147;28;20030;-91
2022/04/21 12:40:41;;;;;;;10.75;6.60;;;;;;;7.68;100.00;93702.81;4984591;28;20041;-92
2022/04/21 12:43:16;;;;;;;11.23;5.95;;;;;;;7.47;100.00;93695.81;4981837;28;20034;-94
2022/04/21 12:45:58;;;;;;;;;;;;;;;;;;;;;
2022/04/21 12:48:43;;;;;;;;;;;;;;;;;;;;;
2022/04/21 12:51:19;;;;;;;9.80;6.50;;;;;;;7.53;100.00;93682.75;4983333;28;20329;-94
2022/04/21 12:54:11;;;;;;;;;;;;;;;;;;;;;
2022/04/21 12:56:44;;;;;;;10.02;6.63;;;;;;;7.37;100.00;93688.00;4998950;28;20023;-92
2022/04/21 12:59:10;;;;;;;11.25;6.70;;;;;;;7.60;100.00;93693.69;4981806;28;20125;-92
2022/04/21 13:01:38;;;;;;;82.43;36.60;;;;;;;7.67;100.00;93691.59;4981966;28;20023;-93
2022/04/21 13:04:14;;;;;;;44.53;20.88;;;;;;;7.76;100.00;93686.59;4981906;28;20033;-94
2022/04/21 13:06:43;;;;;;;94.55;49.67;;;;;;;7.71;100.00;93665.78;4982042;28;20389;-93
2022/04/21 13:11:56;;;;;;;44.70;26.52;;;;;;;7.71;100.00;93661.31;4959991;28;20030;-93
2022/04/21 13:14:41;;;;;;;13.25;7.97;;;;;;;7.46;100.00;93667.41;4981418;28;20034;-93
2022/04/21 13:17:17;;;;;;;;;;;;;;;;;;;;;
2022/04/21 13:19:45;;;;;;;15.45;12.43;;;;;;;7.72;100.00;93680.38;4982755;28;20044;-94
2022/04/21 13:22:10;;;;;;;39.15;32.88;;;;;;;7.92;100.00;93661.25;4981054;28;20359;-93
2022/04/21 13:24:45;;;;;;;15.32;12.98;;;;;;;7.97;100.00;93665.69;4997114;28;20036;-94
2022/04/21 13:27:24;;;;;;;6.50;4.85;;;;;;;8.02;100.00;93657.81;4997617;28;20027;-92
2022/04/21 13:30:01;;;;;;;5.22;4.43;;;;;;;8.22;100.00;93638.69;4966401;28;20030;-93